EAA1980 SBCH-SBNF
Flight info
| Callsign | EAA1980 |
|---|---|
| Flight time | N/A |
| Altitude | 35000 |
| Route | IMBIM UZ75 USTUN UM540 UGTEK |
| Aircraft | B738/M-SDE2E3FGHIRWXY/LB1 |
Departure
| Time | N/A |
|---|---|
| Airport | Serafin Enoss Bertaso Airport (SBCH) |
Arrival
| Time | 2026-05-03 20:47 |
|---|---|
| Airport | Ministro Victor Konder International Airport (SBNF) |
| Time | Latitude | Longitude | Altitude | Speed | Heading |
|---|---|---|---|---|---|
| 2026-05-03 20:15 | -27.57464 | -49.34681 | 27522 ft | 455 kts | 99° |
| 2026-05-03 20:15 | -27.57898 | -49.31145 | 26856 ft | 455 kts | 99° |
| 2026-05-03 20:15 | -27.58327 | -49.27626 | 26417 ft | 448 kts | 99° |
| 2026-05-03 20:15 | -27.58740 | -49.24211 | 26330 ft | 433 kts | 99° |
| 2026-05-03 20:16 | -27.59140 | -49.20902 | 26123 ft | 421 kts | 99° |
| 2026-05-03 20:16 | -27.59541 | -49.17597 | 25296 ft | 429 kts | 99° |
| 2026-05-03 20:16 | -27.59947 | -49.14245 | 24447 ft | 436 kts | 99° |
| 2026-05-03 20:16 | -27.60361 | -49.10820 | 23502 ft | 444 kts | 99° |
| 2026-05-03 20:17 | -27.60773 | -49.07402 | 22473 ft | 448 kts | 98° |
| 2026-05-03 20:17 | -27.61192 | -49.03907 | 21463 ft | 451 kts | 98° |
| 2026-05-03 20:17 | -27.61319 | -49.00376 | 20464 ft | 453 kts | 83° |
| 2026-05-03 20:17 | -27.60499 | -48.96997 | 19575 ft | 441 kts | 65° |
| 2026-05-03 20:18 | -27.58961 | -48.94111 | 18680 ft | 418 kts | 50° |
| 2026-05-03 20:18 | -27.56888 | -48.92047 | 17670 ft | 383 kts | 27° |
| 2026-05-03 20:18 | -27.54479 | -48.91158 | 16653 ft | 351 kts | 1° |
| 2026-05-03 20:18 | -27.52179 | -48.91487 | 15657 ft | 323 kts | 334° |
| 2026-05-03 20:19 | -27.50265 | -48.92647 | 14767 ft | 305 kts | 323° |
| 2026-05-03 20:19 | -27.48524 | -48.93949 | 13818 ft | 296 kts | 323° |
| 2026-05-03 20:19 | -27.46609 | -48.94734 | 12742 ft | 303 kts | 357° |
| 2026-05-03 20:19 | -27.45026 | -48.93402 | 11665 ft | 314 kts | 90° |
| 2026-05-03 20:20 | -27.46219 | -48.92766 | 10608 ft | 238 kts | 268° |
| 2026-05-03 20:20 | -27.45251 | -48.92701 | 9403 ft | 270 kts | 105° |
| 2026-05-03 20:20 | -27.46240 | -48.92830 | 8573 ft | 245 kts | 314° |
| 2026-05-03 20:20 | -27.45702 | -48.91987 | 7574 ft | 209 kts | 141° |
| 2026-05-03 20:21 | -27.46634 | -48.91808 | 8765 ft | 148 kts | 210° |
| 2026-05-03 20:21 | -27.47671 | -48.92677 | 8531 ft | 206 kts | 227° |
| 2026-05-03 20:21 | -27.48526 | -48.93964 | 8513 ft | 204 kts | 247° |
| 2026-05-03 20:21 | -27.48468 | -48.95447 | 8256 ft | 200 kts | 314° |
| 2026-05-03 20:22 | -27.47383 | -48.95113 | 7499 ft | 214 kts | 79° |
| 2026-05-03 20:22 | -27.47414 | -48.93406 | 7127 ft | 215 kts | 94° |
| 2026-05-03 20:22 | -27.47512 | -48.91745 | 6858 ft | 210 kts | 93° |
| 2026-05-03 20:22 | -27.47599 | -48.90093 | 6516 ft | 211 kts | 93° |
| 2026-05-03 20:23 | -27.47684 | -48.88471 | 6172 ft | 210 kts | 93° |
| 2026-05-03 20:23 | -27.47769 | -48.86837 | 5826 ft | 209 kts | 93° |
| 2026-05-03 20:23 | -27.47854 | -48.85209 | 5455 ft | 208 kts | 92° |
| 2026-05-03 20:23 | -27.47940 | -48.83590 | 5136 ft | 207 kts | 92° |
| 2026-05-03 20:24 | -27.48015 | -48.81977 | 4798 ft | 205 kts | 89° |
| 2026-05-03 20:24 | -27.47855 | -48.80392 | 4462 ft | 203 kts | 75° |
| 2026-05-03 20:24 | -27.47366 | -48.78914 | 4127 ft | 201 kts | 61° |
| 2026-05-03 20:24 | -27.46584 | -48.77632 | 3802 ft | 198 kts | 47° |
| 2026-05-03 20:25 | -27.45561 | -48.76641 | 3758 ft | 185 kts | 32° |
| 2026-05-03 20:25 | -27.44374 | -48.76022 | 4072 ft | 207 kts | 16° |
| 2026-05-03 20:25 | -27.42803 | -48.75661 | 4413 ft | 249 kts | 6° |
| 2026-05-03 20:25 | -27.41078 | -48.75420 | 4876 ft | 252 kts | 5° |
| 2026-05-03 20:26 | -27.39321 | -48.75186 | 5327 ft | 256 kts | 5° |
| 2026-05-03 20:26 | -27.37543 | -48.74948 | 5805 ft | 259 kts | 5° |
| 2026-05-03 20:26 | -27.35754 | -48.74598 | 6292 ft | 264 kts | 13° |
| 2026-05-03 20:26 | -27.33997 | -48.73954 | 6768 ft | 267 kts | 17° |
| 2026-05-03 20:27 | -27.32242 | -48.73244 | 7158 ft | 270 kts | 18° |
| 2026-05-03 20:27 | -27.30478 | -48.72519 | 7214 ft | 270 kts | 18° |
| 2026-05-03 20:27 | -27.28704 | -48.71784 | 7233 ft | 272 kts | 18° |
| 2026-05-03 20:27 | -27.26932 | -48.71045 | 7229 ft | 271 kts | 18° |
| 2026-05-03 20:28 | -27.25170 | -48.70308 | 7231 ft | 270 kts | 18° |
| 2026-05-03 20:28 | -27.23410 | -48.69570 | 7236 ft | 270 kts | 18° |
| 2026-05-03 20:28 | -27.21650 | -48.68831 | 7236 ft | 270 kts | 18° |
| 2026-05-03 20:28 | -27.19891 | -48.68091 | 7233 ft | 270 kts | 18° |
| 2026-05-03 20:29 | -27.18134 | -48.67349 | 7234 ft | 270 kts | 18° |
| 2026-05-03 20:29 | -27.16382 | -48.66595 | 7218 ft | 269 kts | 20° |
| 2026-05-03 20:29 | -27.14710 | -48.65633 | 7239 ft | 271 kts | 27° |
| 2026-05-03 20:29 | -27.13080 | -48.64569 | 7229 ft | 271 kts | 28° |
| 2026-05-03 20:30 | -27.11456 | -48.63497 | 7238 ft | 270 kts | 28° |
| 2026-05-03 20:30 | -27.09839 | -48.62424 | 7244 ft | 267 kts | 28° |
| 2026-05-03 20:30 | -27.08316 | -48.61404 | 7230 ft | 250 kts | 28° |
| 2026-05-03 20:30 | -27.06866 | -48.60427 | 7222 ft | 238 kts | 28° |
| 2026-05-03 20:31 | -27.05443 | -48.59468 | 7043 ft | 240 kts | 28° |
| 2026-05-03 20:31 | -27.04007 | -48.58498 | 6516 ft | 248 kts | 28° |
| 2026-05-03 20:31 | -27.02496 | -48.57489 | 5680 ft | 255 kts | 28° |
| 2026-05-03 20:31 | -27.00955 | -48.56487 | 4868 ft | 257 kts | 28° |
| 2026-05-03 20:32 | -26.99397 | -48.55490 | 4030 ft | 258 kts | 28° |
| 2026-05-03 20:32 | -26.97853 | -48.54541 | 3612 ft | 245 kts | 28° |
| 2026-05-03 20:32 | -26.96413 | -48.53683 | 3466 ft | 225 kts | 28° |
| 2026-05-03 20:32 | -26.95047 | -48.52879 | 3333 ft | 221 kts | 28° |
| 2026-05-03 20:33 | -26.93677 | -48.52081 | 3250 ft | 222 kts | 28° |
| 2026-05-03 20:33 | -26.92312 | -48.51293 | 3246 ft | 220 kts | 28° |
| 2026-05-03 20:33 | -26.90951 | -48.50509 | 3239 ft | 220 kts | 28° |
| 2026-05-03 20:33 | -26.89590 | -48.49728 | 3235 ft | 220 kts | 28° |
| 2026-05-03 20:34 | -26.88230 | -48.48949 | 3236 ft | 220 kts | 27° |
| 2026-05-03 20:34 | -26.86870 | -48.48171 | 3237 ft | 220 kts | 27° |
| 2026-05-03 20:34 | -26.85507 | -48.47393 | 3237 ft | 220 kts | 28° |
| 2026-05-03 20:34 | -26.84142 | -48.46614 | 3236 ft | 220 kts | 27° |
| 2026-05-03 20:35 | -26.82759 | -48.45885 | 3235 ft | 221 kts | 21° |
| 2026-05-03 20:35 | -26.81271 | -48.45468 | 3237 ft | 221 kts | 8° |
| 2026-05-03 20:35 | -26.79735 | -48.45428 | 3233 ft | 221 kts | 356° |
| 2026-05-03 20:35 | -26.78226 | -48.45770 | 3235 ft | 222 kts | 343° |
| 2026-05-03 20:36 | -26.76820 | -48.46477 | 3237 ft | 223 kts | 330° |
| 2026-05-03 20:36 | -26.75594 | -48.47499 | 3235 ft | 223 kts | 317° |
| 2026-05-03 20:36 | -26.74585 | -48.48811 | 3239 ft | 223 kts | 304° |
| 2026-05-03 20:36 | -26.73856 | -48.50342 | 3240 ft | 224 kts | 292° |
| 2026-05-03 20:37 | -26.73441 | -48.52018 | 3242 ft | 224 kts | 279° |
| 2026-05-03 20:37 | -26.73443 | -48.53756 | 3096 ft | 225 kts | 258° |
| 2026-05-03 20:37 | -26.74038 | -48.55348 | 2715 ft | 222 kts | 231° |
| 2026-05-03 20:37 | -26.75223 | -48.56386 | 2282 ft | 217 kts | 199° |
| 2026-05-03 20:38 | -26.76661 | -48.56664 | 2156 ft | 198 kts | 179° |
| 2026-05-03 20:38 | -26.78048 | -48.56653 | 2540 ft | 208 kts | 179° |
| 2026-05-03 20:38 | -26.79476 | -48.56708 | 2987 ft | 197 kts | 181° |
| 2026-05-03 20:38 | -26.80823 | -48.56785 | 2601 ft | 193 kts | 181° |
| 2026-05-03 20:39 | -26.82187 | -48.56867 | 1907 ft | 199 kts | 189° |
| 2026-05-03 20:39 | -26.83327 | -48.57465 | 2038 ft | 169 kts | 216° |
| 2026-05-03 20:39 | -26.84102 | -48.58466 | 1791 ft | 175 kts | 235° |
| 2026-05-03 20:39 | -26.84696 | -48.59633 | 1484 ft | 167 kts | 239° |
| 2026-05-03 20:40 | -26.85249 | -48.60744 | 1238 ft | 165 kts | 236° |
| 2026-05-03 20:40 | -26.85850 | -48.61825 | 993 ft | 164 kts | 235° |
| 2026-05-03 20:40 | -26.86514 | -48.62879 | 724 ft | 163 kts | 231° |
| 2026-05-03 20:40 | -26.87167 | -48.63859 | 508 ft | 153 kts | 236° |
| 2026-05-03 20:41 | -26.87732 | -48.64869 | 691 ft | 151 kts | 244° |
| 2026-05-03 20:41 | -26.87911 | -48.65636 | 1200 ft | 154 kts | 260° |
| 2026-05-03 20:41 | -26.87996 | -48.66869 | 2040 ft | 155 kts | 268° |
| 2026-05-03 20:41 | -26.87913 | -48.68060 | 3088 ft | 139 kts | 279° |
| 2026-05-03 20:42 | -26.87351 | -48.68736 | 3872 ft | 150 kts | 1° |
| 2026-05-03 20:42 | -26.86527 | -48.67780 | 3039 ft | 191 kts | 74° |
| 2026-05-03 20:42 | -26.86235 | -48.66360 | 2698 ft | 182 kts | 76° |
| 2026-05-03 20:42 | -26.85768 | -48.65098 | 2453 ft | 172 kts | 65° |
| 2026-05-03 20:43 | -26.85271 | -48.63819 | 1586 ft | 195 kts | 70° |
| 2026-05-03 20:43 | -26.84732 | -48.62271 | 483 ft | 225 kts | 69° |
| 2026-05-03 20:43 | -26.84223 | -48.60661 | 254 ft | 193 kts | 69° |
| 2026-05-03 20:43 | -26.83896 | -48.59441 | 667 ft | 145 kts | 83° |
| 2026-05-03 20:44 | -26.83970 | -48.58382 | 534 ft | 140 kts | 108° |
| 2026-05-03 20:44 | -26.84512 | -48.57522 | 378 ft | 133 kts | 151° |
| 2026-05-03 20:44 | -26.85280 | -48.57557 | 486 ft | 105 kts | 230° |
| 2026-05-03 20:44 | -26.85265 | -48.58265 | 384 ft | 93 kts | 314° |
| 2026-05-03 20:45 | -26.84679 | -48.58668 | 452 ft | 120 kts | 309° |
| 2026-05-03 20:45 | -26.84542 | -48.59563 | 1165 ft | 132 kts | 244° |
| 2026-05-03 20:45 | -26.84843 | -48.60420 | 1472 ft | 102 kts | 238° |
| 2026-05-03 20:45 | -26.85248 | -48.61102 | 1067 ft | 110 kts | 230° |
| 2026-05-03 20:46 | -26.85702 | -48.61792 | 753 ft | 108 kts | 230° |
| 2026-05-03 20:46 | -26.86168 | -48.62408 | 527 ft | 98 kts | 229° |
| 2026-05-03 20:46 | -26.86618 | -48.63026 | 427 ft | 107 kts | 234° |
| 2026-05-03 20:46 | -26.87088 | -48.63732 | 298 ft | 117 kts | 234° |
| 2026-05-03 20:47 | -26.87548 | -48.64453 | 91 ft | 109 kts | 237° |
| 2026-05-03 20:47 | -26.87894 | -48.65020 | 26 ft | 33 kts | 235° |
| 2026-05-03 20:47 | -26.87991 | -48.65148 | 25 ft | 8 kts | 185° |
| 2026-05-03 20:47 | -26.88042 | -48.65108 | 29 ft | 14 kts | 122° |
| 2026-05-03 20:48 | -26.88021 | -48.65008 | 26 ft | 14 kts | 69° |
| 2026-05-03 20:48 | -26.88028 | -48.64961 | 29 ft | 1 kts | 109° |